Detall de PIREP

Printer-friendly versionPDF version

[2017/02/18 08:48:00]
Flight IATA:CT2101
Pilot Number:012
Company ICAO:CAT
Aircraft Type:F50/A
PAX:50
Aircraft Registration:PAOB
Departing Airport: LEAS
Destination Airport: LEVC
Alternate Airport:LEPA
Online: VATSIM
Route:XONDA R107 ROVAK G255 RATAS B42 DISKO A33 CJN L150 NANDO M871 ABOSI
Flight Level:F230
No Slew and time accel
No pause
Crash detect
Detect pilot in Cockpit between each 30 and 45 minutes
08:48 Zero fuel Weight: 37752 Lbs, Fuel Weight: 7089 Lbs
08:48 VATSIM:LEAS 180830Z VRB02KT 9999 FEW035 SCT050 09/08 Q1022 TEMPO 3000 SHRA SCT025TCU
08:48 VATSIM:LEVC 180830Z VRB01KT CAVOK 07/06 Q1023 NOSIG
08:52 Parking Brakes off
08:56 Take-off
08:56 Take off Weight: 44760 Lbs
08:56 Wind: 002º @ 002 Knots Heading: 288º
08:56 POS N43º 33´ 53´´ W006º 02´ 23´´
08:56 Gear Up: 119 Knots
08:56 Flaps:3 at 119 Knots
08:56 Flaps:2 at 124 Knots
08:56 Flaps:1 at 138 Knots
08:56 Flaps:0 at 160 Knots
09:11 Wind:244º@020 Knots Heading: 177º Ground Speed: 189 Knots Altitude 19304 ft
09:16 TOC
09:16 Fuel Weight: 6318 Lb
09:26 Wind:285º@029 Knots Heading: 095º Ground Speed: 284 Knots Altitude 23244 ft
09:41 Wind:234º@016 Knots Heading: 189º Ground Speed: 244 Knots Altitude 23261 ft
09:56 Wind:249º@016 Knots Heading: 188º Ground Speed: 248 Knots Altitude 23274 ft
10:11 Wind:249º@016 Knots Heading: 119º Ground Speed: 265 Knots Altitude 23284 ft
10:18 TOD
10:18 Fuel Weight: 4739 Lb
10:18 TOC
10:18 Fuel Weight: 4722 Lb
10:25 TOD
10:25 Fuel Weight: 4570 Lb
10:26 Wind:223º@011 Knots Heading: 108º Ground Speed: 265 Knots Altitude 21758 ft
10:41 Wind:311º@000 Knots Heading: 126º Ground Speed: 179 Knots Altitude 4655 ft
10:42 Flaps:1 at 168 Knots
10:42 Gear Down: 163 Knots
10:42 Flaps:2 at 163 Knots
10:43 Flaps:3 at 145 Knots
10:43 Flaps:4 at 133 Knots
10:43 Flaps:5 at 125 Knots
10:43 Flaps:6 at 121 Knots
10:45 TouchDown:Rate -259 ft/min Speed: 109 Knots
10:45 Flaps:0 at 48 Knots
10:45 VATSIM:LEVC 181030Z 00000KT CAVOK 14/07 Q1022 NOSIG
10:45 Land
10:45 Wind:000º@000 Knots
10:45 Heading: 113º
10:45 Flight Duration: 01:49
10:45 Landing Weight: 42091 Lbs
10:45 POS N39º 29´ 31´´ W000º 29´ 21´´
10:49 Parking brakes on
10:49 Block to Block Duration: 01:57
10:49 Final Fuel: 4305 Lbls
10:49 Spent Fuel: 2784 Lbls
10:49 Flight Length: 435 NM
10:49 TOD Land Length: 71 NM

Exportar CSV

Powered by Drupal - Modified by Danger4k